Time;durP1;ratioP1;P1;durP2;ratioP2;P2;SDS_P1;SDS_P2;PMS_P1;PMS_P2;Temp;Humidity;BMP_temperature;BMP_pressure;BME280_temperature;BME280_humidity;BME280_pressure;Samples;Min_cycle;Max_cycle;Signal;HPM_P1;HPM_P2
2023/08/24 00:00:38;;;;;;;8.68;6.70;;;;;;;29.84;38.27;99570.59;5050576;28;20025;-40
2023/08/24 00:03:03;;;;;;;12.27;6.90;;;;;;;29.83;38.41;99579.94;5050536;28;20020;-39
2023/08/24 00:05:29;;;;;;;12.20;6.43;;;;;;;29.84;38.60;99584.31;5050327;28;20116;-40
2023/08/24 00:07:54;;;;;;;10.48;6.80;;;;;;;29.84;38.33;99580.78;5050346;28;20463;-39
2023/08/24 00:10:20;;;;;;;9.35;6.30;;;;;;;29.72;38.63;99570.50;5050403;28;20031;-39
2023/08/24 00:12:45;;;;;;;9.68;6.90;;;;;;;29.79;38.65;99577.06;5050338;28;20048;-40
2023/08/24 00:15:11;;;;;;;12.48;7.20;;;;;;;29.74;38.97;99571.00;5050249;28;20017;-40
2023/08/24 00:17:37;;;;;;;8.52;6.60;;;;;;;29.63;39.07;99576.06;5050053;28;20051;-40
2023/08/24 00:20:07;;;;;;;12.07;7.00;;;;;;;29.56;39.42;99575.81;5050293;28;20032;-40
2023/08/24 00:22:33;;;;;;;12.68;7.32;;;;;;;29.59;39.07;99572.41;5050146;28;20024;-40
2023/08/24 00:24:58;;;;;;;8.63;7.00;;;;;;;29.63;39.28;99579.59;5050006;28;20036;-40
2023/08/24 00:27:24;;;;;;;9.90;6.60;;;;;;;29.52;39.26;99577.63;5050138;28;20127;-40
2023/08/24 00:29:49;;;;;;;10.63;6.43;;;;;;;29.52;39.58;99569.38;5050010;28;20361;-40
2023/08/24 00:32:15;;;;;;;10.82;7.05;;;;;;;29.52;39.61;99572.13;5049831;28;20079;-40
2023/08/24 00:34:40;;;;;;;10.88;6.70;;;;;;;29.52;39.49;99570.19;5050249;28;20028;-40
2023/08/24 00:37:06;;;;;;;11.60;6.88;;;;;;;29.51;39.41;99576.00;5049604;28;20048;-40
2023/08/24 00:39:31;;;;;;;11.82;7.13;;;;;;;29.47;39.31;99570.38;5049848;28;20087;-41
2023/08/24 00:41:57;;;;;;;9.82;7.03;;;;;;;29.46;39.52;99573.47;5049739;28;20024;-40
2023/08/24 00:44:22;;;;;;;9.55;6.78;;;;;;;29.38;39.73;99559.50;5049830;28;20437;-40
2023/08/24 00:46:48;;;;;;;8.30;6.82;;;;;;;29.42;39.92;99559.63;5049928;28;20116;-39
2023/08/24 00:49:14;;;;;;;8.77;6.80;;;;;;;29.44;39.92;99557.38;5049726;28;20025;-40
2023/08/24 00:51:40;;;;;;;13.23;7.45;;;;;;;29.18;40.14;99572.03;5049774;28;20103;-40
2023/08/24 00:54:05;;;;;;;10.23;7.38;;;;;;;29.17;40.14;99572.38;5049800;28;20021;-39
2023/08/24 00:56:31;;;;;;;8.95;7.35;;;;;;;29.16;40.41;99581.72;5049685;28;20033;-40
2023/08/24 00:58:57;;;;;;;13.80;7.25;;;;;;;29.10;40.05;99572.88;5049821;28;20021;-40
2023/08/24 01:01:24;;;;;;;12.10;7.28;;;;;;;29.06;40.06;99571.94;5053711;28;20025;-41
2023/08/24 01:03:50;;;;;;;11.60;6.95;;;;;;;28.97;39.88;99569.22;5053891;28;20104;-41
2023/08/24 01:06:15;;;;;;;8.75;6.88;;;;;;;28.93;39.96;99562.03;5053371;28;20055;-41
2023/08/24 01:08:41;;;;;;;10.70;7.13;;;;;;;28.87;40.12;99555.13;5053589;28;20515;-41
2023/08/24 01:11:25;;;;;;;10.45;7.70;;;;;;;28.95;39.90;99562.50;5053422;28;20055;-40
2023/08/24 01:13:57;;;;;;;10.48;7.38;;;;;;;28.98;39.44;99570.06;5053425;28;20021;-40
2023/08/24 01:16:29;;;;;;;10.10;7.68;;;;;;;28.89;39.79;99575.56;5053214;28;20107;-39
2023/08/24 01:18:56;;;;;;;9.35;7.70;;;;;;;28.76;39.95;99571.13;5053183;28;20059;-40
2023/08/24 01:21:22;;;;;;;8.57;7.10;;;;;;;28.63;40.54;99565.53;5053408;28;20021;-40
2023/08/24 01:24:17;;;;;;;9.10;7.25;;;;;;;28.77;40.31;99559.84;5053424;28;20037;-39
2023/08/24 01:26:44;;;;;;;11.55;6.95;;;;;;;28.81;40.38;99551.78;5053429;28;20021;-40
2023/08/24 01:29:10;;;;;;;7.78;6.70;;;;;;;28.69;40.70;99566.16;5053394;28;20032;-41
2023/08/24 01:31:35;;;;;;;10.60;7.32;;;;;;;28.70;40.45;99562.28;5053072;28;20021;-40
2023/08/24 01:34:01;;;;;;;8.02;6.60;;;;;;;28.60;40.33;99565.41;5053135;28;20096;-39
2023/08/24 01:36:26;;;;;;;8.50;6.82;;;;;;;28.68;40.19;99556.34;5053425;28;20139;-40
2023/08/24 01:39:06;;;;;;;8.75;6.78;;;;;;;28.75;40.39;99566.75;5053080;28;20080;-39
2023/08/24 01:41:42;;;;;;;8.40;6.72;;;;;;;28.74;40.28;99556.97;5053106;28;20024;-40
2023/08/24 01:44:12;;;;;;;7.45;6.53;;;;;;;28.53;40.43;99560.44;5053260;28;20032;-40
2023/08/24 01:46:39;;;;;;;8.93;7.00;;;;;;;28.51;40.56;99550.91;5053007;28;20029;-40
2023/08/24 01:49:07;;;;;;;9.07;7.05;;;;;;;28.48;40.67;99549.63;5052816;28;20013;-40
2023/08/24 01:51:34;;;;;;;9.32;7.10;;;;;;;28.37;40.88;99562.06;5052832;28;20031;-40
2023/08/24 01:54:00;;;;;;;11.57;6.95;;;;;;;28.42;40.89;99562.69;5052945;28;20059;-40
2023/08/24 01:56:26;;;;;;;9.65;6.68;;;;;;;28.55;40.84;99558.16;5052817;28;20516;-40
2023/08/24 01:58:51;;;;;;;9.88;7.05;;;;;;;28.57;40.65;99561.38;5052373;28;20067;-40
2023/08/24 02:01:16;;;;;;;8.38;7.20;;;;;;;28.50;40.72;99552.03;5052822;28;20459;-40
2023/08/24 02:03:42;;;;;;;10.07;7.22;;;;;;;28.36;41.31;99557.72;5052728;28;20398;-40
2023/08/24 02:06:08;;;;;;;8.65;6.97;;;;;;;28.17;41.74;99547.97;5052889;28;20028;-40
2023/08/24 02:08:33;;;;;;;9.50;7.05;;;;;;;28.09;41.73;99557.00;5052661;28;20097;-40
2023/08/24 02:10:59;;;;;;;11.95;7.30;;;;;;;27.94;41.96;99558.31;5051895;28;20489;-40
2023/08/24 02:13:24;;;;;;;12.27;7.03;;;;;;;27.94;42.08;99552.03;5052756;28;20417;-39
2023/08/24 02:15:50;;;;;;;10.20;7.72;;;;;;;27.96;41.95;99552.53;5052582;28;20358;-39
2023/08/24 02:18:15;;;;;;;12.55;7.75;;;;;;;28.03;42.05;99547.38;5052290;28;20029;-40
2023/08/24 02:20:41;;;;;;;8.50;7.30;;;;;;;28.04;41.87;99544.28;5052453;28;20041;-39
2023/08/24 02:23:06;;;;;;;12.07;6.90;;;;;;;28.19;41.72;99550.38;5052355;28;20021;-40
2023/08/24 02:25:32;;;;;;;11.30;6.95;;;;;;;28.19;41.89;99548.44;5052328;28;20123;-40
2023/08/24 02:27:59;;;;;;;9.60;7.45;;;;;;;28.14;42.00;99545.06;5052141;28;20495;-39
2023/08/24 02:30:24;;;;;;;8.88;6.72;;;;;;;28.04;42.23;99541.53;5052056;28;20025;-39
2023/08/24 02:32:50;;;;;;;9.77;7.68;;;;;;;28.02;42.27;99553.94;5052256;28;20362;-39
2023/08/24 02:35:17;;;;;;;9.32;7.00;;;;;;;27.71;42.91;99559.59;5051965;28;20194;-40
2023/08/24 02:37:42;;;;;;;13.35;7.38;;;;;;;27.63;43.28;99562.00;5051541;28;20060;-39
2023/08/24 02:40:09;;;;;;;8.73;7.18;;;;;;;27.57;43.44;99566.03;5051789;28;20036;-40
2023/08/24 02:42:35;;;;;;;8.18;7.10;;;;;;;27.42;43.76;99561.84;5051764;28;20120;-40
2023/08/24 02:45:01;;;;;;;9.40;7.38;;;;;;;27.58;43.66;99566.81;5051610;28;20025;-40
2023/08/24 02:47:26;;;;;;;8.48;7.00;;;;;;;27.77;43.24;99563.78;5051755;28;20103;-40
2023/08/24 02:49:52;;;;;;;10.88;7.07;;;;;;;27.82;43.37;99555.41;5051681;28;20059;-40
2023/08/24 02:52:17;;;;;;;10.20;7.20;;;;;;;27.69;43.39;99552.50;5051973;28;20063;-40
2023/08/24 02:54:43;;;;;;;9.40;7.15;;;;;;;27.60;43.61;99548.19;5051533;28;20476;-40
2023/08/24 02:57:08;;;;;;;10.18;7.45;;;;;;;27.37;44.15;99553.78;5051789;28;20047;-40
2023/08/24 02:59:34;;;;;;;11.73;6.85;;;;;;;27.21;44.35;99539.78;5051568;28;20021;-39
2023/08/24 03:01:59;;;;;;;9.07;6.88;;;;;;;27.28;44.37;99542.88;5051170;28;20451;-40
2023/08/24 03:04:25;;;;;;;10.18;7.60;;;;;;;27.43;43.95;99549.78;5051471;28;20123;-40
2023/08/24 03:06:50;;;;;;;11.07;7.03;;;;;;;27.45;44.06;99546.72;5050265;28;20516;-39
2023/08/24 03:09:16;;;;;;;9.63;6.85;;;;;;;27.18;44.31;99554.06;5051235;28;20013;-39
2023/08/24 03:11:41;;;;;;;11.07;7.45;;;;;;;27.23;44.22;99559.38;5051311;28;20092;-39
2023/08/24 03:14:07;;;;;;;8.63;7.40;;;;;;;27.24;44.13;99560.16;5051580;28;20369;-39
2023/08/24 03:16:32;;;;;;;9.90;7.32;;;;;;;27.34;44.01;99557.19;5051126;28;20025;-39
2023/08/24 03:18:58;;;;;;;11.60;7.60;;;;;;;27.35;43.98;99555.25;5051002;28;20017;-39
2023/08/24 03:21:23;;;;;;;8.20;7.30;;;;;;;27.39;43.81;99548.00;5051047;28;20100;-39
2023/08/24 03:23:49;;;;;;;9.05;7.28;;;;;;;27.01;44.62;99560.28;5050293;28;20059;-39
2023/08/24 03:26:16;;;;;;;8.02;7.05;;;;;;;26.99;44.63;99556.28;5050993;28;20078;-39
2023/08/24 03:28:41;;;;;;;9.77;7.00;;;;;;;26.94;44.51;99564.59;5051215;28;20017;-39
2023/08/24 03:31:07;;;;;;;10.93;7.40;;;;;;;26.38;45.89;99567.72;5051034;28;20017;-39
2023/08/24 03:33:34;;;;;;;8.93;7.47;;;;;;;26.52;45.64;99565.72;5050916;28;20542;-40
2023/08/24 03:36:00;;;;;;;10.45;7.88;;;;;;;26.62;45.36;99567.41;5050927;28;20024;-40
2023/08/24 03:38:26;;;;;;;9.77;7.30;;;;;;;26.36;45.95;99574.63;5050604;28;20045;-39
2023/08/24 03:40:52;;;;;;;10.25;7.13;;;;;;;26.51;45.44;99577.75;5051502;28;20079;-40
2023/08/24 03:43:17;;;;;;;9.82;7.55;;;;;;;26.69;45.12;99583.31;5050721;28;20520;-39
2023/08/24 03:45:43;;;;;;;9.35;7.45;;;;;;;26.74;44.97;99585.91;5050700;28;20443;-40
2023/08/24 03:48:09;;;;;;;10.98;7.50;;;;;;;26.95;44.59;99588.88;5050955;28;20028;-40
2023/08/24 03:50:34;;;;;;;9.48;7.00;;;;;;;27.18;44.11;99586.84;5050833;28;20024;-39
2023/08/24 03:52:59;;;;;;;10.50;7.10;;;;;;;27.26;43.70;99591.56;5050451;28;20536;-39
2023/08/24 03:55:25;;;;;;;8.77;7.20;;;;;;;27.31;43.53;99590.59;5050527;28;20523;-38
2023/08/24 03:57:51;;;;;;;9.25;7.45;;;;;;;27.35;43.48;99588.03;5050340;28;20021;-39
2023/08/24 04:00:17;;;;;;;11.52;9.18;;;;;;;27.32;43.82;99589.44;5050175;28;20104;-40
2023/08/24 04:02:42;;;;;;;11.90;8.32;;;;;;;27.39;43.66;99592.53;5050754;28;20250;-39
2023/08/24 04:05:08;;;;;;;8.57;7.18;;;;;;;27.41;43.52;99589.47;5050412;28;20485;-38
2023/08/24 04:07:36;;;;;;;9.82;7.03;;;;;;;27.37;43.44;99580.31;5050522;28;20469;-39
2023/08/24 04:10:05;;;;;;;8.27;7.07;;;;;;;27.63;42.88;99589.34;5050189;28;20063;-39
2023/08/24 04:12:31;;;;;;;10.98;7.60;;;;;;;27.67;42.58;99597.69;5050400;28;20025;-39
2023/08/24 04:14:57;;;;;;;8.65;6.95;;;;;;;27.81;42.17;99594.78;5050617;28;20070;-39
2023/08/24 04:17:23;;;;;;;9.82;6.85;;;;;;;27.62;42.78;99593.19;5050576;28;20100;-40
2023/08/24 04:19:49;;;;;;;7.68;6.88;;;;;;;27.86;42.50;99587.22;5050291;28;20025;-39
2023/08/24 04:22:14;;;;;;;11.98;7.20;;;;;;;28.11;42.28;99587.56;5050472;28;20024;-39
2023/08/24 04:24:40;;;;;;;12.40;6.88;;;;;;;27.97;42.22;99587.75;5050589;28;20033;-39
2023/08/24 04:27:06;;;;;;;10.73;7.10;;;;;;;28.30;41.74;99589.13;5050258;28;20385;-39
2023/08/24 04:29:32;;;;;;;9.15;7.32;;;;;;;28.26;41.58;99589.78;5050160;28;20041;-40
2023/08/24 04:31:57;;;;;;;8.35;6.75;;;;;;;28.36;41.21;99599.56;5050242;28;20404;-40
2023/08/24 04:34:23;;;;;;;9.77;6.47;;;;;;;27.90;42.17;99606.56;5050185;28;20021;-38
2023/08/24 04:36:48;;;;;;;10.50;7.30;;;;;;;28.19;41.58;99608.59;5050179;28;20025;-40
2023/08/24 04:39:14;;;;;;;8.70;7.20;;;;;;;28.55;41.04;99604.69;5049914;28;20512;-39
2023/08/24 04:41:39;;;;;;;8.40;6.75;;;;;;;28.58;40.74;99612.25;5050380;28;20017;-40
2023/08/24 04:44:04;;;;;;;12.20;7.28;;;;;;;29.11;40.09;99607.34;5050141;28;20435;-39
2023/08/24 04:46:30;;;;;;;12.63;7.15;;;;;;;29.39;39.43;99610.41;5050027;28;20719;-40
2023/08/24 04:48:56;;;;;;;11.35;7.43;;;;;;;29.33;39.78;99614.50;5050236;28;20032;-40
2023/08/24 04:51:21;;;;;;;9.60;7.15;;;;;;;29.83;39.12;99612.84;5049877;28;20025;-40
2023/08/24 04:53:46;;;;;;;9.23;7.18;;;;;;;29.90;38.19;99615.88;5050019;28;20025;-40
2023/08/24 04:56:12;;;;;;;9.80;7.47;;;;;;;30.06;37.99;99624.25;5050216;28;20396;-39
2023/08/24 04:58:37;;;;;;;10.98;6.88;;;;;;;30.14;37.59;99622.56;5049434;28;20052;-39
2023/08/24 05:01:03;;;;;;;10.05;7.07;;;;;;;30.17;37.70;99619.97;5049948;28;20032;-39
2023/08/24 05:03:28;;;;;;;10.00;6.50;;;;;;;30.54;37.47;99622.03;5050030;28;20017;-39
2023/08/24 05:05:53;;;;;;;10.93;6.65;;;;;;;30.88;37.13;99622.75;5049807;28;20020;-39
2023/08/24 05:08:19;;;;;;;8.70;6.70;;;;;;;31.12;36.53;99616.50;5049616;28;20056;-38
2023/08/24 05:10:45;;;;;;;8.95;6.72;;;;;;;31.08;36.91;99619.13;5050103;28;20365;-43
2023/08/24 05:13:10;;;;;;;6.97;6.22;;;;;;;31.02;36.54;99609.53;5049630;28;20418;-43
2023/08/24 05:15:36;;;;;;;8.02;6.55;;;;;;;31.72;36.03;99619.47;5049901;28;20143;-41
2023/08/24 05:18:01;;;;;;;10.55;6.80;;;;;;;32.32;35.02;99625.13;5049859;28;20366;-40
2023/08/24 05:20:27;;;;;;;9.77;7.13;;;;;;;32.81;34.18;99624.03;5049661;28;20033;-43
2023/08/24 05:22:54;;;;;;;8.93;6.70;;;;;;;33.23;33.59;99623.47;5050016;28;20442;-43
2023/08/24 05:25:21;;;;;;;10.82;6.60;;;;;;;33.53;33.11;99622.91;5049689;28;20405;-41
2023/08/24 05:27:46;;;;;;;10.43;6.50;;;;;;;33.89;32.67;99627.25;5049935;28;20063;-42
2023/08/24 05:30:12;;;;;;;10.40;6.20;;;;;;;33.65;32.77;99617.31;5049698;28;20457;-43
2023/08/24 05:32:38;;;;;;;10.15;6.43;;;;;;;33.92;32.45;99622.97;5049644;28;20031;-43
2023/08/24 05:35:05;;;;;;;8.98;6.72;;;;;;;33.66;33.00;99628.00;5049523;28;20455;-41
2023/08/24 05:37:30;;;;;;;8.00;6.60;;;;;;;33.42;33.10;99634.53;5049760;28;20427;-42
2023/08/24 05:39:56;;;;;;;8.55;6.18;;;;;;;33.69;32.32;99637.50;5049606;28;20033;-43
2023/08/24 05:42:21;;;;;;;7.53;6.10;;;;;;;34.38;31.94;99632.16;5049610;28;20036;-42
2023/08/24 05:44:47;;;;;;;11.85;6.50;;;;;;;34.34;32.08;99625.78;5049821;28;20036;-45
2023/08/24 05:47:12;;;;;;;14.65;6.15;;;;;;;34.77;31.69;99632.09;5052755;28;20025;-44
2023/08/24 05:49:37;;;;;;;8.65;6.22;;;;;;;35.44;30.58;99626.00;5053420;28;20028;-42
2023/08/24 05:52:03;;;;;;;7.88;6.40;;;;;;;35.77;29.98;99612.59;5053438;28;20062;-42
2023/08/24 05:54:29;;;;;;;7.35;6.38;;;;;;;35.89;29.72;99612.34;5053211;28;20039;-42
2023/08/24 05:56:54;;;;;;;6.88;6.18;;;;;;;35.19;29.98;99619.31;5052963;28;20408;-43
2023/08/24 05:59:20;;;;;;;7.35;6.03;;;;;;;34.80;30.38;99623.03;5052705;28;20459;-47
2023/08/24 06:01:45;;;;;;;8.25;5.97;;;;;;;35.21;30.15;99620.53;5052793;28;20029;-43
2023/08/24 06:04:11;;;;;;;8.25;6.28;;;;;;;35.46;29.51;99627.59;5052065;28;20028;-43
2023/08/24 06:06:37;;;;;;;10.60;6.18;;;;;;;35.92;29.33;99621.88;5052741;28;20025;-45
2023/08/24 06:09:05;;;;;;;8.80;5.97;;;;;;;35.46;29.63;99624.84;5052687;28;20441;-44
2023/08/24 06:11:32;;;;;;;;;;;;;;;36.27;28.41;99623.44;5053249;28;20024;-44
2023/08/24 06:13:57;;;;;;;8.38;5.90;;;;;;;36.32;28.16;99628.66;5052787;28;19923;-43
2023/08/24 06:16:22;;;;;;;7.85;6.13;;;;;;;36.12;28.29;99614.16;5052676;28;20044;-44
2023/08/24 06:18:49;;;;;;;10.32;5.88;;;;;;;36.43;27.90;99617.69;5052402;28;20017;-42
2023/08/24 06:21:15;;;;;;;9.70;6.25;;;;;;;36.69;27.66;99616.72;5053030;28;20021;-43
2023/08/24 06:23:40;;;;;;;9.98;7.05;;;;;;;36.48;27.96;99620.91;5052385;28;20025;-42
2023/08/24 06:26:06;;;;;;;7.22;6.30;;;;;;;36.87;27.35;99620.44;5052473;28;20407;-44
2023/08/24 06:28:31;;;;;;;11.82;6.47;;;;;;;36.55;27.78;99617.38;5052371;28;20484;-44
2023/08/24 06:30:57;;;;;;;12.77;7.57;;;;;;;36.48;28.01;99618.13;5052145;28;20420;-43
2023/08/24 06:33:30;;;;;;;10.30;7.30;;;;;;;35.70;28.60;99629.09;5052351;28;20476;-43
2023/08/24 06:35:56;;;;;;;9.93;7.35;;;;;;;35.39;29.67;99640.13;5052387;28;20108;-42
2023/08/24 06:38:22;;;;;;;9.60;6.57;;;;;;;35.79;29.12;99635.16;5052158;28;20140;-44
2023/08/24 06:40:47;;;;;;;9.63;6.50;;;;;;;35.45;28.77;99629.53;5052163;28;20107;-42
2023/08/24 06:43:13;;;;;;;10.98;6.25;;;;;;;35.24;28.86;99630.88;5052492;28;20024;-43
2023/08/24 06:45:40;;;;;;;9.43;6.30;;;;;;;35.06;29.47;99635.28;5052573;28;20021;-42
2023/08/24 06:48:06;;;;;;;9.65;7.80;;;;;;;34.99;29.22;99655.31;5052014;28;20035;-46
2023/08/24 06:50:32;;;;;;;11.45;7.15;;;;;;;34.27;30.28;99664.28;5051254;28;20025;-44
2023/08/24 06:52:58;;;;;;;10.10;7.85;;;;;;;33.68;31.15;99674.50;5052157;28;20025;-44
2023/08/24 06:55:23;;;;;;;8.82;6.80;;;;;;;33.04;32.39;99684.81;5052166;28;20024;-43
2023/08/24 06:57:52;;;;;;;12.57;7.60;;;;;;;32.40;33.66;99689.44;5052135;28;20168;-44
2023/08/24 07:00:19;;;;;;;;;;;;;;;32.05;34.95;99693.59;5052755;28;20028;-42
2023/08/24 07:02:51;;;;;;;16.48;7.63;;;;;;;32.36;36.47;99700.34;5051872;28;20000;-43
2023/08/24 07:05:20;;;;;;;21.70;8.35;;;;;;;31.74;40.35;99689.50;5051925;28;20025;-40
2023/08/24 07:07:47;;;;;;;22.30;9.43;;;;;;;31.75;42.74;99673.81;5051964;28;20078;-41
2023/08/24 07:10:12;;;;;;;17.88;9.13;;;;;;;31.79;44.51;99660.97;5051678;28;20044;-40
2023/08/24 07:12:41;;;;;;;17.27;8.48;;;;;;;31.68;45.25;99655.16;5051866;28;20477;-42
2023/08/24 07:15:09;;;;;;;14.32;8.25;;;;;;;31.05;46.15;99651.97;5050258;28;20036;-40
2023/08/24 07:17:35;;;;;;;11.82;7.68;;;;;;;30.55;46.57;99631.88;5049619;28;20043;-43
2023/08/24 07:20:00;;;;;;;12.30;7.90;;;;;;;30.01;47.95;99632.72;5053294;28;20021;-42
2023/08/24 07:22:28;;;;;;;9.30;7.72;;;;;;;30.53;48.67;99634.16;5051536;28;20442;-41
2023/08/24 07:24:54;;;;;;;9.05;7.50;;;;;;;30.31;48.99;99638.06;5049724;28;20466;-42
2023/08/24 07:27:20;;;;;;;9.18;7.22;;;;;;;30.99;48.19;99635.72;5049467;28;20123;-41
2023/08/24 07:29:45;;;;;;;12.13;7.40;;;;;;;31.72;46.50;99633.25;5051268;28;20024;-44
2023/08/24 07:32:11;;;;;;;8.40;7.07;;;;;;;32.48;45.91;99638.91;5051032;28;20495;-43
2023/08/24 07:34:36;;;;;;;9.43;6.45;;;;;;;33.11;43.43;99647.22;5031268;28;20029;-42
2023/08/24 07:37:02;;;;;;;7.45;6.18;;;;;;;33.44;41.83;99648.75;5031291;28;20442;-42
2023/08/24 07:39:27;;;;;;;7.30;5.47;;;;;;;32.81;41.88;99648.81;5030992;28;20057;-43
2023/08/24 07:41:53;;;;;;;7.20;6.05;;;;;;;32.57;42.81;99655.28;5031139;28;20056;-43
2023/08/24 07:44:18;;;;;;;7.70;6.43;;;;;;;32.64;44.22;99648.00;5030829;28;20032;-42
2023/08/24 07:46:44;;;;;;;9.02;6.57;;;;;;;32.79;42.85;99654.69;5050717;28;20036;-42
2023/08/24 07:49:09;;;;;;;9.05;6.53;;;;;;;32.41;44.28;99652.50;5050948;28;20024;-43
2023/08/24 07:51:36;;;;;;;10.00;7.00;;;;;;;32.00;43.83;99660.78;5051047;28;20025;-42
2023/08/24 07:54:04;;;;;;;9.00;6.78;;;;;;;32.41;43.54;99655.25;5051159;28;20030;-43
2023/08/24 07:56:30;;;;;;;8.40;6.57;;;;;;;32.91;43.48;99656.53;5050833;28;20025;-41
2023/08/24 07:58:55;;;;;;;8.40;6.03;;;;;;;33.05;43.55;99667.94;5048533;28;20041;-44
2023/08/24 08:01:20;;;;;;;7.88;5.97;;;;;;;32.56;44.32;99670.16;5050807;28;20061;-44
2023/08/24 08:03:46;;;;;;;12.32;5.50;;;;;;;32.50;44.71;99659.44;5051025;28;20031;-43
2023/08/24 08:06:13;;;;;;;8.18;5.35;;;;;;;33.06;43.57;99650.22;5050920;28;20031;-43
2023/08/24 08:08:39;;;;;;;7.30;5.10;;;;;;;33.39;42.92;99665.56;5050498;28;20099;-42
2023/08/24 08:11:04;;;;;;;7.82;4.82;;;;;;;34.26;40.63;99660.75;5050559;28;20544;-45
2023/08/24 08:13:30;;;;;;;5.40;4.63;;;;;;;34.44;40.33;99646.47;5050522;28;20174;-43
2023/08/24 08:16:07;;;;;;;6.53;5.15;;;;;;;34.98;38.33;99652.94;5050578;28;20071;-44
2023/08/24 08:18:33;;;;;;;7.13;5.18;;;;;;;35.31;38.33;99651.50;5050743;28;20040;-43
2023/08/24 08:20:59;;;;;;;7.30;5.43;;;;;;;35.47;37.19;99643.00;5050615;28;20111;-45
2023/08/24 08:23:25;;;;;;;6.93;5.60;;;;;;;35.23;36.70;99645.06;5050445;28;20104;-44
2023/08/24 08:25:50;;;;;;;9.77;5.45;;;;;;;35.17;37.04;99650.09;5050671;28;20516;-41
2023/08/24 08:28:17;;;;;;;7.80;5.22;;;;;;;35.36;36.00;99646.44;5050407;28;20021;-43
2023/08/24 08:30:43;;;;;;;7.18;5.30;;;;;;;35.75;36.20;99643.41;5048684;28;20025;-43
2023/08/24 08:33:08;;;;;;;5.90;4.50;;;;;;;36.13;34.86;99635.94;5050652;28;20441;-44
2023/08/24 08:35:34;;;;;;;6.32;4.47;;;;;;;36.18;33.40;99629.31;5050245;28;20453;-43
2023/08/24 08:37:59;;;;;;;6.80;4.38;;;;;;;36.35;32.38;99628.69;5050188;28;20429;-42
2023/08/24 08:40:29;;;;;;;4.93;4.15;;;;;;;36.80;32.34;99625.94;5050292;28;20036;-44
2023/08/24 08:42:57;;;;;;;7.30;4.68;;;;;;;36.63;32.86;99627.34;5050544;28;20407;-43
2023/08/24 08:45:25;;;;;;;6.00;4.45;;;;;;;37.04;31.62;99626.50;5050535;28;20025;-44
2023/08/24 08:47:51;;;;;;;6.82;4.53;;;;;;;37.14;31.78;99628.59;5050568;28;20029;-44
2023/08/24 08:50:17;;;;;;;5.75;4.40;;;;;;;37.43;31.77;99621.22;5050672;28;20024;-44
2023/08/24 08:52:42;;;;;;;6.68;4.63;;;;;;;37.42;31.26;99618.84;5050274;28;20491;-43
2023/08/24 08:55:10;;;;;;;6.07;4.90;;;;;;;37.42;30.53;99619.63;5050213;28;20032;-47
2023/08/24 08:57:36;;;;;;;8.35;4.80;;;;;;;37.11;30.98;99618.22;5049961;28;20107;-44
2023/08/24 09:00:03;;;;;;;8.55;5.45;;;;;;;36.83;31.02;99614.09;5049785;28;20033;-46
2023/08/24 09:02:30;;;;;;;6.88;5.57;;;;;;;36.45;31.67;99615.31;5050171;28;20032;-44
2023/08/24 09:04:56;;;;;;;6.43;5.57;;;;;;;36.49;31.95;99619.72;5049646;28;20040;-44
2023/08/24 09:07:23;;;;;;;7.00;5.60;;;;;;;36.43;32.32;99618.47;5049496;28;20114;-44
2023/08/24 09:09:50;;;;;;;7.90;5.13;;;;;;;36.42;33.24;99616.06;5050094;28;20028;-47
2023/08/24 09:12:15;;;;;;;7.22;5.28;;;;;;;36.42;33.27;99614.09;5049568;28;20065;-45
2023/08/24 09:14:41;;;;;;;6.38;4.97;;;;;;;37.20;32.91;99615.16;5049556;28;20033;-43
2023/08/24 09:17:07;;;;;;;8.95;5.65;;;;;;;37.26;31.83;99606.09;5049660;28;20051;-42
2023/08/24 09:19:35;;;;;;;7.60;5.25;;;;;;;36.85;33.52;99605.38;5049693;28;20036;-43
2023/08/24 09:22:02;;;;;;;6.30;5.18;;;;;;;36.46;34.07;99603.88;5052746;28;20029;-42
2023/08/24 09:24:34;;;;;;;10.20;5.60;;;;;;;36.75;33.71;99604.13;5053588;28;20036;-44
2023/08/24 09:27:17;;;;;;;9.45;5.30;;;;;;;36.75;33.24;99601.38;5052245;28;20025;-43
2023/08/24 09:29:42;;;;;;;6.93;5.32;;;;;;;37.10;33.76;99606.34;5053056;28;20483;-44
2023/08/24 09:32:09;;;;;;;7.93;5.82;;;;;;;37.36;33.21;99605.34;5053532;28;20028;-45
2023/08/24 09:34:36;;;;;;;6.95;5.45;;;;;;;38.13;31.92;99596.13;5053048;28;20086;-47
2023/08/24 09:37:04;;;;;;;7.60;6.10;;;;;;;38.28;30.95;99599.72;5053534;28;20047;-44
2023/08/24 09:39:29;;;;;;;6.27;5.17;;;;;;;37.61;30.75;99599.13;5053593;28;20421;-45
2023/08/24 09:42:03;;;;;;;5.60;4.80;;;;;;;37.90;30.74;99597.25;5052985;28;20013;-44
2023/08/24 09:44:28;;;;;;;6.03;4.80;;;;;;;38.30;29.24;99594.56;5053299;28;20057;-47
2023/08/24 09:46:54;;;;;;;5.45;4.95;;;;;;;38.25;28.71;99592.19;5053387;28;20059;-47
2023/08/24 09:49:19;;;;;;;5.93;5.32;;;;;;;38.34;29.33;99587.03;5053093;28;20017;-47
2023/08/24 09:51:46;;;;;;;8.15;5.15;;;;;;;38.36;29.48;99581.88;5053480;28;20036;-46
2023/08/24 09:54:13;;;;;;;6.90;4.90;;;;;;;38.75;29.27;99583.88;5053399;28;20048;-48
2023/08/24 09:56:40;;;;;;;7.03;5.10;;;;;;;38.95;27.83;99578.69;5050913;28;20116;-47
2023/08/24 09:59:21;;;;;;;5.82;5.22;;;;;;;38.18;28.18;99592.19;5053059;28;20121;-47
2023/08/24 10:01:48;;;;;;;6.50;5.30;;;;;;;37.93;29.40;99587.34;5047572;28;20072;-45
2023/08/24 10:04:25;;;;;;;6.95;5.70;;;;;;;37.73;30.72;99586.88;5048642;28;20082;-44
2023/08/24 10:07:07;;;;;;;9.05;5.43;;;;;;;37.88;29.98;99582.16;5053515;28;20469;-47
2023/08/24 10:09:51;;;;;;;8.63;5.78;;;;;;;37.85;30.35;99583.75;5050183;28;20485;-44
2023/08/24 10:12:20;;;;;;;10.65;6.82;;;;;;;37.57;31.13;99581.66;5052924;28;20104;-45
2023/08/24 10:14:56;;;;;;;9.40;5.90;;;;;;;37.80;31.54;99577.78;5053081;28;20037;-45
2023/08/24 10:17:23;;;;;;;7.65;5.85;;;;;;;37.92;30.97;99582.97;5052789;28;20017;-46
2023/08/24 10:19:52;;;;;;;9.50;6.35;;;;;;;37.25;31.76;99576.75;5052333;28;20021;-49
2023/08/24 10:22:19;;;;;;;9.50;6.20;;;;;;;37.59;31.44;99562.63;5052541;28;20477;-44
2023/08/24 10:24:47;;;;;;;6.82;5.68;;;;;;;37.44;32.13;99561.00;5052291;28;20021;-43
2023/08/24 10:27:14;;;;;;;8.45;6.00;;;;;;;37.80;32.00;99555.59;5052871;28;20036;-43
2023/08/24 10:29:39;;;;;;;9.57;5.97;;;;;;;38.23;30.30;99542.59;5052860;28;20055;-46
2023/08/24 10:32:06;;;;;;;8.23;5.95;;;;;;;38.64;29.74;99546.97;5054236;28;20573;-47
2023/08/24 10:34:32;;;;;;;8.43;6.47;;;;;;;38.53;28.08;99533.84;5052803;28;20455;-49
2023/08/24 10:37:10;;;;;;;7.45;5.63;;;;;;;38.91;28.19;99520.28;5052564;28;20480;-44
2023/08/24 10:39:39;;;;;;;7.15;5.35;;;;;;;38.70;28.56;99526.69;5052305;28;20055;-44
2023/08/24 10:42:10;;;;;;;7.63;5.63;;;;;;;38.62;28.20;99522.34;5052462;28;20105;-46
2023/08/24 10:44:37;;;;;;;6.22;5.35;;;;;;;38.83;27.61;99501.25;5051403;28;20078;-44
2023/08/24 10:47:15;;;;;;;12.07;7.82;;;;;;;38.68;27.72;99511.63;5052334;28;20031;-43
2023/08/24 10:49:43;;;;;;;6.23;5.37;;;;;;;38.80;27.29;99511.19;5052289;28;20044;-45
2023/08/24 10:52:21;;;;;;;6.47;5.70;;;;;;;39.06;27.65;99511.94;5053548;28;20297;-43
2023/08/24 10:54:52;;;;;;;6.43;5.30;;;;;;;38.98;28.05;99505.59;5049552;28;21653;-44
2023/08/24 10:57:22;;;;;;;8.55;5.60;;;;;;;39.11;27.89;99505.97;5052006;28;20136;-45
2023/08/24 11:00:07;;;;;;;8.70;5.47;;;;;;;38.97;28.77;99511.53;5051935;28;20408;-43
2023/08/24 11:02:45;;;;;;;6.57;5.25;;;;;;;39.21;27.43;99510.69;5052486;28;20041;-46
2023/08/24 11:05:17;;;;;;;6.13;5.05;;;;;;;39.64;26.54;99493.00;5052389;28;20047;-45
2023/08/24 11:07:50;;;;;;;5.90;4.90;;;;;;;40.03;26.40;99491.97;5049635;28;20027;-44
2023/08/24 11:10:15;;;;;;;5.88;4.90;;;;;;;40.33;26.11;99477.41;5049875;28;20037;-47
2023/08/24 11:13:03;;;;;;;6.80;4.95;;;;;;;40.09;25.64;99483.97;5050619;28;20036;-47
2023/08/24 11:15:32;;;;;;;7.13;5.07;;;;;;;40.30;25.92;99485.78;5035011;28;20017;-44
2023/08/24 11:18:20;;;;;;;8.45;5.30;;;;;;;40.32;26.70;99469.44;5031357;28;20176;-44
2023/08/24 11:20:47;;;;;;;7.75;5.25;;;;;;;40.40;26.77;99468.19;5031889;28;20029;-45
2023/08/24 11:23:15;;;;;;;8.10;5.20;;;;;;;40.16;26.40;99470.00;5031403;28;20075;-47
2023/08/24 11:25:40;;;;;;;6.03;5.43;;;;;;;40.70;26.36;99461.91;5031303;28;20261;-43
2023/08/24 11:28:06;;;;;;;8.25;5.57;;;;;;;40.98;25.58;99460.81;5031279;28;20030;-44
2023/08/24 11:30:35;;;;;;;5.80;5.20;;;;;;;40.80;25.63;99449.88;5031069;28;20087;-45